sensor_id;sensor_type;location;lat;lon;timestamp;temperature;humidity
6373;DHT22;3219;51.362;7.074;2023-03-01T00:01:18;-0.20;99.90
6373;DHT22;3219;51.362;7.074;2023-03-01T00:03:45;-0.20;99.90
6373;DHT22;3219;51.362;7.074;2023-03-01T00:06:14;-0.20;99.90
6373;DHT22;3219;51.362;7.074;2023-03-01T00:08:41;-0.20;99.90
6373;DHT22;3219;51.362;7.074;2023-03-01T00:11:11;-0.20;99.90
6373;DHT22;3219;51.362;7.074;2023-03-01T00:13:39;-0.20;99.90
6373;DHT22;3219;51.362;7.074;2023-03-01T00:16:07;-0.30;99.90
6373;DHT22;3219;51.362;7.074;2023-03-01T00:18:34;-0.30;99.90
6373;DHT22;3219;51.362;7.074;2023-03-01T00:21:01;-0.30;99.90
6373;DHT22;3219;51.362;7.074;2023-03-01T00:23:29;-0.40;99.90
6373;DHT22;3219;51.362;7.074;2023-03-01T00:25:56;-0.40;99.90
6373;DHT22;3219;51.362;7.074;2023-03-01T00:28:23;-0.40;99.90
6373;DHT22;3219;51.362;7.074;2023-03-01T00:30:50;-0.40;99.90
6373;DHT22;3219;51.362;7.074;2023-03-01T00:33:16;-0.40;99.90
6373;DHT22;3219;51.362;7.074;2023-03-01T00:35:43;-0.40;99.90
6373;DHT22;3219;51.362;7.074;2023-03-01T00:38:10;-0.40;99.90
6373;DHT22;3219;51.362;7.074;2023-03-01T00:40:38;-0.40;99.90
6373;DHT22;3219;51.362;7.074;2023-03-01T00:43:05;-0.30;99.90
6373;DHT22;3219;51.362;7.074;2023-03-01T00:45:33;-0.30;99.90
6373;DHT22;3219;51.362;7.074;2023-03-01T00:47:59;-0.30;99.90
6373;DHT22;3219;51.362;7.074;2023-03-01T00:50:26;-0.30;99.90
6373;DHT22;3219;51.362;7.074;2023-03-01T00:52:53;-0.30;99.90
6373;DHT22;3219;51.362;7.074;2023-03-01T00:55:20;-0.30;99.90
6373;DHT22;3219;51.362;7.074;2023-03-01T00:57:49;-0.40;99.90
6373;DHT22;3219;51.362;7.074;2023-03-01T01:00:16;-0.40;99.90
6373;DHT22;3219;51.362;7.074;2023-03-01T01:02:43;-0.50;99.90
6373;DHT22;3219;51.362;7.074;2023-03-01T01:05:10;-0.50;99.90
6373;DHT22;3219;51.362;7.074;2023-03-01T01:07:37;-0.60;99.90
6373;DHT22;3219;51.362;7.074;2023-03-01T01:10:04;-0.60;99.90
6373;DHT22;3219;51.362;7.074;2023-03-01T01:12:31;-0.60;99.90
6373;DHT22;3219;51.362;7.074;2023-03-01T01:15:00;-0.60;99.90
6373;DHT22;3219;51.362;7.074;2023-03-01T01:17:26;-0.60;99.90
6373;DHT22;3219;51.362;7.074;2023-03-01T01:19:53;-0.60;99.90
6373;DHT22;3219;51.362;7.074;2023-03-01T01:22:20;-0.60;99.90
6373;DHT22;3219;51.362;7.074;2023-03-01T01:24:46;-0.70;99.90
6373;DHT22;3219;51.362;7.074;2023-03-01T01:27:13;-0.70;99.90
6373;DHT22;3219;51.362;7.074;2023-03-01T01:29:40;-0.70;99.90
6373;DHT22;3219;51.362;7.074;2023-03-01T01:32:08;-0.70;99.90
6373;DHT22;3219;51.362;7.074;2023-03-01T01:34:35;-0.70;99.90
6373;DHT22;3219;51.362;7.074;2023-03-01T01:37:02;-0.80;99.90
6373;DHT22;3219;51.362;7.074;2023-03-01T01:39:29;-0.80;99.90
6373;DHT22;3219;51.362;7.074;2023-03-01T01:41:56;-0.90;99.90
6373;DHT22;3219;51.362;7.074;2023-03-01T01:44:24;-0.90;99.90
6373;DHT22;3219;51.362;7.074;2023-03-01T01:46:54;-1.00;99.90
6373;DHT22;3219;51.362;7.074;2023-03-01T01:49:30;-1.10;99.90
6373;DHT22;3219;51.362;7.074;2023-03-01T01:52:04;-1.10;99.90
6373;DHT22;3219;51.362;7.074;2023-03-01T01:54:40;-1.20;99.90
6373;DHT22;3219;51.362;7.074;2023-03-01T01:57:12;-1.20;99.90
6373;DHT22;3219;51.362;7.074;2023-03-01T01:59:41;-1.30;99.90
6373;DHT22;3219;51.362;7.074;2023-03-01T02:02:09;-1.30;99.90
6373;DHT22;3219;51.362;7.074;2023-03-01T02:04:37;-1.20;99.90
6373;DHT22;3219;51.362;7.074;2023-03-01T02:07:11;-1.20;99.90
6373;DHT22;3219;51.362;7.074;2023-03-01T02:09:41;-1.20;99.90
6373;DHT22;3219;51.362;7.074;2023-03-01T02:12:08;-1.20;99.90
6373;DHT22;3219;51.362;7.074;2023-03-01T02:14:35;-1.20;99.90
6373;DHT22;3219;51.362;7.074;2023-03-01T02:17:02;-1.10;99.90
6373;DHT22;3219;51.362;7.074;2023-03-01T02:19:40;-1.20;99.90
6373;DHT22;3219;51.362;7.074;2023-03-01T02:22:16;-1.20;99.90
6373;DHT22;3219;51.362;7.074;2023-03-01T02:24:50;-1.30;99.90
6373;DHT22;3219;51.362;7.074;2023-03-01T02:27:27;-1.30;99.90
6373;DHT22;3219;51.362;7.074;2023-03-01T02:29:56;-1.30;99.90
6373;DHT22;3219;51.362;7.074;2023-03-01T02:32:23;-1.30;99.90
6373;DHT22;3219;51.362;7.074;2023-03-01T02:34:52;-1.20;99.90
6373;DHT22;3219;51.362;7.074;2023-03-01T02:37:20;-1.30;99.90
6373;DHT22;3219;51.362;7.074;2023-03-01T02:39:55;-1.30;99.90
6373;DHT22;3219;51.362;7.074;2023-03-01T02:42:26;-1.30;99.90
6373;DHT22;3219;51.362;7.074;2023-03-01T02:44:56;-1.30;99.90
6373;DHT22;3219;51.362;7.074;2023-03-01T02:47:23;-1.30;99.90
6373;DHT22;3219;51.362;7.074;2023-03-01T02:49:50;-1.30;99.90
6373;DHT22;3219;51.362;7.074;2023-03-01T02:52:33;-1.30;99.90
6373;DHT22;3219;51.362;7.074;2023-03-01T02:55:06;-1.30;99.90
6373;DHT22;3219;51.362;7.074;2023-03-01T02:57:36;-1.40;99.90
6373;DHT22;3219;51.362;7.074;2023-03-01T03:00:08;-1.40;99.90
6373;DHT22;3219;51.362;7.074;2023-03-01T03:02:36;-1.40;99.90
6373;DHT22;3219;51.362;7.074;2023-03-01T03:05:06;-1.30;99.90
6373;DHT22;3219;51.362;7.074;2023-03-01T03:07:34;-1.30;99.90
6373;DHT22;3219;51.362;7.074;2023-03-01T03:10:03;-1.40;99.90
6373;DHT22;3219;51.362;7.074;2023-03-01T03:12:31;-1.40;99.90
6373;DHT22;3219;51.362;7.074;2023-03-01T03:14:58;-1.40;99.90
6373;DHT22;3219;51.362;7.074;2023-03-01T03:17:26;-1.40;99.90
6373;DHT22;3219;51.362;7.074;2023-03-01T03:19:53;-1.30;99.90
6373;DHT22;3219;51.362;7.074;2023-03-01T03:22:20;-1.30;99.90
6373;DHT22;3219;51.362;7.074;2023-03-01T03:24:47;-1.30;99.90
6373;DHT22;3219;51.362;7.074;2023-03-01T03:27:14;-1.40;99.90
6373;DHT22;3219;51.362;7.074;2023-03-01T03:29:40;-1.40;99.90
6373;DHT22;3219;51.362;7.074;2023-03-01T03:32:07;-1.40;99.90
6373;DHT22;3219;51.362;7.074;2023-03-01T03:34:36;-1.50;99.90
6373;DHT22;3219;51.362;7.074;2023-03-01T03:37:02;-1.50;99.90
6373;DHT22;3219;51.362;7.074;2023-03-01T03:39:49;-1.60;99.90
6373;DHT22;3219;51.362;7.074;2023-03-01T03:42:20;-1.70;99.90
6373;DHT22;3219;51.362;7.074;2023-03-01T03:44:47;-1.70;99.90
6373;DHT22;3219;51.362;7.074;2023-03-01T03:47:13;-1.70;99.90
6373;DHT22;3219;51.362;7.074;2023-03-01T03:49:41;-1.80;99.90
6373;DHT22;3219;51.362;7.074;2023-03-01T03:52:08;-1.70;99.90
6373;DHT22;3219;51.362;7.074;2023-03-01T03:54:39;-1.70;99.90
6373;DHT22;3219;51.362;7.074;2023-03-01T03:57:06;-1.70;99.90
6373;DHT22;3219;51.362;7.074;2023-03-01T03:59:32;-1.70;99.90
6373;DHT22;3219;51.362;7.074;2023-03-01T04:01:59;-1.70;99.90
6373;DHT22;3219;51.362;7.074;2023-03-01T04:04:26;-1.70;99.90
6373;DHT22;3219;51.362;7.074;2023-03-01T04:06:54;-1.70;99.90
6373;DHT22;3219;51.362;7.074;2023-03-01T04:09:21;-1.60;99.90
6373;DHT22;3219;51.362;7.074;2023-03-01T04:11:47;-1.70;99.90
6373;DHT22;3219;51.362;7.074;2023-03-01T04:14:14;-1.70;99.90
6373;DHT22;3219;51.362;7.074;2023-03-01T04:16:41;-1.80;99.90
6373;DHT22;3219;51.362;7.074;2023-03-01T04:19:07;-1.80;99.90
6373;DHT22;3219;51.362;7.074;2023-03-01T04:21:35;-1.80;99.90
6373;DHT22;3219;51.362;7.074;2023-03-01T04:24:04;-1.80;99.90
6373;DHT22;3219;51.362;7.074;2023-03-01T04:26:32;-1.80;99.90
6373;DHT22;3219;51.362;7.074;2023-03-01T04:28:58;-1.80;99.90
6373;DHT22;3219;51.362;7.074;2023-03-01T04:31:25;-1.80;99.90
6373;DHT22;3219;51.362;7.074;2023-03-01T04:33:53;-1.90;99.90
6373;DHT22;3219;51.362;7.074;2023-03-01T04:36:22;-2.00;99.90
6373;DHT22;3219;51.362;7.074;2023-03-01T04:38:49;-2.00;99.90
6373;DHT22;3219;51.362;7.074;2023-03-01T04:41:20;-2.10;99.90
6373;DHT22;3219;51.362;7.074;2023-03-01T04:43:48;-2.10;99.90
6373;DHT22;3219;51.362;7.074;2023-03-01T04:46:16;-2.10;99.90
6373;DHT22;3219;51.362;7.074;2023-03-01T04:48:44;-2.00;99.90
6373;DHT22;3219;51.362;7.074;2023-03-01T04:51:12;-2.00;99.90
6373;DHT22;3219;51.362;7.074;2023-03-01T04:53:40;-2.00;99.90
6373;DHT22;3219;51.362;7.074;2023-03-01T04:56:07;-2.00;99.90
6373;DHT22;3219;51.362;7.074;2023-03-01T04:58:35;-2.10;99.90
6373;DHT22;3219;51.362;7.074;2023-03-01T05:01:09;-2.10;99.90
6373;DHT22;3219;51.362;7.074;2023-03-01T05:03:41;-2.00;99.90
6373;DHT22;3219;51.362;7.074;2023-03-01T05:06:07;-2.00;99.90
6373;DHT22;3219;51.362;7.074;2023-03-01T05:08:34;-2.00;99.90
6373;DHT22;3219;51.362;7.074;2023-03-01T05:11:03;-2.10;99.90
6373;DHT22;3219;51.362;7.074;2023-03-01T05:13:30;-2.10;99.90
6373;DHT22;3219;51.362;7.074;2023-03-01T05:16:00;-2.10;99.90
6373;DHT22;3219;51.362;7.074;2023-03-01T05:18:28;-2.10;99.90
6373;DHT22;3219;51.362;7.074;2023-03-01T05:21:02;-2.10;99.90
6373;DHT22;3219;51.362;7.074;2023-03-01T05:23:29;-2.10;99.90
6373;DHT22;3219;51.362;7.074;2023-03-01T05:25:57;-2.10;99.90
6373;DHT22;3219;51.362;7.074;2023-03-01T05:28:26;-2.20;99.90
6373;DHT22;3219;51.362;7.074;2023-03-01T05:30:53;-2.20;99.90
6373;DHT22;3219;51.362;7.074;2023-03-01T05:33:21;-2.20;99.90
6373;DHT22;3219;51.362;7.074;2023-03-01T05:35:49;-2.20;99.90
6373;DHT22;3219;51.362;7.074;2023-03-01T05:38:17;-2.20;99.90
6373;DHT22;3219;51.362;7.074;2023-03-01T05:40:46;-2.20;99.90
6373;DHT22;3219;51.362;7.074;2023-03-01T05:43:14;-2.10;99.90
6373;DHT22;3219;51.362;7.074;2023-03-01T05:45:42;-2.10;99.90
6373;DHT22;3219;51.362;7.074;2023-03-01T05:48:09;-2.20;99.90
6373;DHT22;3219;51.362;7.074;2023-03-01T05:50:39;-2.20;99.90
6373;DHT22;3219;51.362;7.074;2023-03-01T05:53:09;-2.30;99.90
6373;DHT22;3219;51.362;7.074;2023-03-01T05:55:37;-2.30;99.90
6373;DHT22;3219;51.362;7.074;2023-03-01T05:58:05;-2.30;99.90
6373;DHT22;3219;51.362;7.074;2023-03-01T06:00:33;-2.30;99.90
6373;DHT22;3219;51.362;7.074;2023-03-01T06:03:01;-2.30;99.90
6373;DHT22;3219;51.362;7.074;2023-03-01T06:05:28;-2.40;99.90
6373;DHT22;3219;51.362;7.074;2023-03-01T06:07:58;-2.40;99.90
6373;DHT22;3219;51.362;7.074;2023-03-01T06:10:25;-2.40;99.90
6373;DHT22;3219;51.362;7.074;2023-03-01T06:12:52;-2.40;99.90
6373;DHT22;3219;51.362;7.074;2023-03-01T06:15:19;-2.30;99.90
6373;DHT22;3219;51.362;7.074;2023-03-01T06:17:46;-2.20;99.90
6373;DHT22;3219;51.362;7.074;2023-03-01T06:20:15;-2.30;99.90
6373;DHT22;3219;51.362;7.074;2023-03-01T06:22:43;-2.30;99.90
6373;DHT22;3219;51.362;7.074;2023-03-01T06:25:15;-2.20;99.90
6373;DHT22;3219;51.362;7.074;2023-03-01T06:27:42;-2.20;99.90
6373;DHT22;3219;51.362;7.074;2023-03-01T06:30:11;-2.20;99.90
6373;DHT22;3219;51.362;7.074;2023-03-01T06:32:39;-2.20;99.90
6373;DHT22;3219;51.362;7.074;2023-03-01T06:35:08;-2.20;99.90
6373;DHT22;3219;51.362;7.074;2023-03-01T06:37:34;-2.20;99.90
6373;DHT22;3219;51.362;7.074;2023-03-01T06:40:01;-2.20;99.90
6373;DHT22;3219;51.362;7.074;2023-03-01T06:42:34;-2.20;99.90
6373;DHT22;3219;51.362;7.074;2023-03-01T06:45:00;-2.20;99.90
6373;DHT22;3219;51.362;7.074;2023-03-01T06:47:27;-2.20;99.90
6373;DHT22;3219;51.362;7.074;2023-03-01T06:49:54;-2.10;99.90
6373;DHT22;3219;51.362;7.074;2023-03-01T06:52:20;-2.10;99.90
6373;DHT22;3219;51.362;7.074;2023-03-01T06:54:47;-2.10;99.90
6373;DHT22;3219;51.362;7.074;2023-03-01T06:57:14;-2.00;99.90
6373;DHT22;3219;51.362;7.074;2023-03-01T06:59:42;-2.00;99.90
6373;DHT22;3219;51.362;7.074;2023-03-01T07:02:10;-1.90;99.90
6373;DHT22;3219;51.362;7.074;2023-03-01T07:04:36;-1.90;99.90
6373;DHT22;3219;51.362;7.074;2023-03-01T07:07:03;-1.80;99.90
6373;DHT22;3219;51.362;7.074;2023-03-01T07:09:30;-1.70;99.90
6373;DHT22;3219;51.362;7.074;2023-03-01T07:11:57;-1.70;99.90
6373;DHT22;3219;51.362;7.074;2023-03-01T07:14:24;-1.60;99.90
6373;DHT22;3219;51.362;7.074;2023-03-01T07:16:52;-1.50;99.90
6373;DHT22;3219;51.362;7.074;2023-03-01T07:19:19;-1.50;99.90
6373;DHT22;3219;51.362;7.074;2023-03-01T07:21:46;-1.50;99.90
6373;DHT22;3219;51.362;7.074;2023-03-01T07:24:13;-1.40;99.90
6373;DHT22;3219;51.362;7.074;2023-03-01T07:26:40;-1.30;99.90
6373;DHT22;3219;51.362;7.074;2023-03-01T07:29:07;-1.20;99.90
6373;DHT22;3219;51.362;7.074;2023-03-01T07:31:35;-1.20;99.90
6373;DHT22;3219;51.362;7.074;2023-03-01T07:34:04;-1.20;99.90
6373;DHT22;3219;51.362;7.074;2023-03-01T07:36:30;-1.10;99.90
6373;DHT22;3219;51.362;7.074;2023-03-01T07:38:57;-1.00;99.90
6373;DHT22;3219;51.362;7.074;2023-03-01T07:41:24;-1.00;99.90
6373;DHT22;3219;51.362;7.074;2023-03-01T07:43:51;-0.90;99.90
6373;DHT22;3219;51.362;7.074;2023-03-01T07:46:17;-0.90;99.90
6373;DHT22;3219;51.362;7.074;2023-03-01T07:48:44;-0.80;99.90
6373;DHT22;3219;51.362;7.074;2023-03-01T07:51:13;-0.80;99.90
6373;DHT22;3219;51.362;7.074;2023-03-01T07:53:40;-0.80;99.90
6373;DHT22;3219;51.362;7.074;2023-03-01T07:56:08;-0.80;99.90
6373;DHT22;3219;51.362;7.074;2023-03-01T07:58:36;-0.70;99.90
6373;DHT22;3219;51.362;7.074;2023-03-01T08:01:04;-0.60;99.90
6373;DHT22;3219;51.362;7.074;2023-03-01T08:03:32;-0.50;99.90
6373;DHT22;3219;51.362;7.074;2023-03-01T08:05:59;-0.50;99.90
6373;DHT22;3219;51.362;7.074;2023-03-01T08:08:27;-0.40;99.90
6373;DHT22;3219;51.362;7.074;2023-03-01T08:10:57;-0.40;99.90
6373;DHT22;3219;51.362;7.074;2023-03-01T08:13:24;-0.30;99.90
6373;DHT22;3219;51.362;7.074;2023-03-01T08:15:51;-0.30;99.90
6373;DHT22;3219;51.362;7.074;2023-03-01T08:18:19;-0.20;99.90
6373;DHT22;3219;51.362;7.074;2023-03-01T08:20:46;0.00;99.90
6373;DHT22;3219;51.362;7.074;2023-03-01T08:23:13;0.60;99.90
6373;DHT22;3219;51.362;7.074;2023-03-01T08:25:41;1.20;99.90
6373;DHT22;3219;51.362;7.074;2023-03-01T08:28:07;1.80;99.90
6373;DHT22;3219;51.362;7.074;2023-03-01T08:30:34;2.80;99.90
6373;DHT22;3219;51.362;7.074;2023-03-01T08:33:01;3.60;99.90
6373;DHT22;3219;51.362;7.074;2023-03-01T08:35:28;4.60;99.90
6373;DHT22;3219;51.362;7.074;2023-03-01T08:37:55;5.20;99.90
6373;DHT22;3219;51.362;7.074;2023-03-01T08:40:21;5.60;99.90
6373;DHT22;3219;51.362;7.074;2023-03-01T08:42:49;6.20;99.90
6373;DHT22;3219;51.362;7.074;2023-03-01T08:45:16;6.30;99.90
6373;DHT22;3219;51.362;7.074;2023-03-01T08:47:44;5.40;99.90
6373;DHT22;3219;51.362;7.074;2023-03-01T08:50:11;4.90;99.90
6373;DHT22;3219;51.362;7.074;2023-03-01T08:52:37;4.70;99.90
6373;DHT22;3219;51.362;7.074;2023-03-01T08:55:05;5.10;99.90
6373;DHT22;3219;51.362;7.074;2023-03-01T08:57:32;5.80;99.90
6373;DHT22;3219;51.362;7.074;2023-03-01T09:00:00;6.10;99.90
6373;DHT22;3219;51.362;7.074;2023-03-01T09:02:28;6.20;99.90
6373;DHT22;3219;51.362;7.074;2023-03-01T09:04:55;5.80;99.90
6373;DHT22;3219;51.362;7.074;2023-03-01T09:07:22;5.60;99.90
6373;DHT22;3219;51.362;7.074;2023-03-01T09:09:53;5.70;99.90
6373;DHT22;3219;51.362;7.074;2023-03-01T09:12:20;5.50;99.90
6373;DHT22;3219;51.362;7.074;2023-03-01T09:14:47;5.20;99.90
6373;DHT22;3219;51.362;7.074;2023-03-01T09:17:15;4.70;99.90
6373;DHT22;3219;51.362;7.074;2023-03-01T09:19:42;4.50;99.90
6373;DHT22;3219;51.362;7.074;2023-03-01T09:22:09;4.30;99.90
6373;DHT22;3219;51.362;7.074;2023-03-01T09:24:35;4.20;99.90
6373;DHT22;3219;51.362;7.074;2023-03-01T09:27:02;4.10;99.90
6373;DHT22;3219;51.362;7.074;2023-03-01T09:29:34;3.90;99.90
6373;DHT22;3219;51.362;7.074;2023-03-01T09:32:01;3.80;99.90
6373;DHT22;3219;51.362;7.074;2023-03-01T09:34:29;3.50;99.90
6373;DHT22;3219;51.362;7.074;2023-03-01T09:36:57;3.50;99.90
6373;DHT22;3219;51.362;7.074;2023-03-01T09:39:27;3.40;99.90
6373;DHT22;3219;51.362;7.074;2023-03-01T09:41:58;3.30;99.90
6373;DHT22;3219;51.362;7.074;2023-03-01T09:44:31;3.20;99.90
6373;DHT22;3219;51.362;7.074;2023-03-01T09:47:01;3.00;99.90
6373;DHT22;3219;51.362;7.074;2023-03-01T09:49:31;2.90;99.90
6373;DHT22;3219;51.362;7.074;2023-03-01T09:52:03;2.90;99.90
6373;DHT22;3219;51.362;7.074;2023-03-01T09:54:33;2.80;99.90
6373;DHT22;3219;51.362;7.074;2023-03-01T09:57:06;2.90;99.90
6373;DHT22;3219;51.362;7.074;2023-03-01T09:59:46;2.80;99.90
6373;DHT22;3219;51.362;7.074;2023-03-01T10:02:25;2.80;99.90
6373;DHT22;3219;51.362;7.074;2023-03-01T10:04:57;2.80;99.90
6373;DHT22;3219;51.362;7.074;2023-03-01T10:07:38;2.80;99.90
6373;DHT22;3219;51.362;7.074;2023-03-01T10:10:11;2.80;99.90
6373;DHT22;3219;51.362;7.074;2023-03-01T10:12:43;2.90;99.90
6373;DHT22;3219;51.362;7.074;2023-03-01T10:15:13;2.90;99.90
6373;DHT22;3219;51.362;7.074;2023-03-01T10:17:46;3.00;99.90
6373;DHT22;3219;51.362;7.074;2023-03-01T10:20:20;2.90;99.90
6373;DHT22;3219;51.362;7.074;2023-03-01T10:22:47;2.90;99.90
6373;DHT22;3219;51.362;7.074;2023-03-01T10:25:23;2.90;99.90
6373;DHT22;3219;51.362;7.074;2023-03-01T10:28:01;2.90;99.90
6373;DHT22;3219;51.362;7.074;2023-03-01T10:30:32;2.80;99.90
6373;DHT22;3219;51.362;7.074;2023-03-01T10:33:01;2.90;99.90
6373;DHT22;3219;51.362;7.074;2023-03-01T10:35:33;2.90;99.90
6373;DHT22;3219;51.362;7.074;2023-03-01T10:38:06;2.90;99.90
6373;DHT22;3219;51.362;7.074;2023-03-01T10:40:33;3.00;99.90
6373;DHT22;3219;51.362;7.074;2023-03-01T10:43:03;3.00;99.90
6373;DHT22;3219;51.362;7.074;2023-03-01T10:45:33;3.00;99.90
6373;DHT22;3219;51.362;7.074;2023-03-01T10:48:10;3.10;99.90
6373;DHT22;3219;51.362;7.074;2023-03-01T10:50:40;3.20;99.90
6373;DHT22;3219;51.362;7.074;2023-03-01T10:53:20;3.30;99.90
6373;DHT22;3219;51.362;7.074;2023-03-01T10:55:47;3.40;99.90
6373;DHT22;3219;51.362;7.074;2023-03-01T10:58:22;3.40;99.90
6373;DHT22;3219;51.362;7.074;2023-03-01T11:00:50;3.50;99.90
6373;DHT22;3219;51.362;7.074;2023-03-01T11:03:21;3.40;99.90
6373;DHT22;3219;51.362;7.074;2023-03-01T11:05:56;3.40;99.90
6373;DHT22;3219;51.362;7.074;2023-03-01T11:08:34;3.50;99.90
6373;DHT22;3219;51.362;7.074;2023-03-01T11:11:16;3.60;99.90
6373;DHT22;3219;51.362;7.074;2023-03-01T11:13:49;3.60;99.90
6373;DHT22;3219;51.362;7.074;2023-03-01T11:16:16;3.70;99.90
6373;DHT22;3219;51.362;7.074;2023-03-01T11:18:55;3.70;99.90
6373;DHT22;3219;51.362;7.074;2023-03-01T11:21:24;3.70;99.90
6373;DHT22;3219;51.362;7.074;2023-03-01T11:23:52;3.80;99.90
6373;DHT22;3219;51.362;7.074;2023-03-01T11:26:19;3.80;99.90
6373;DHT22;3219;51.362;7.074;2023-03-01T11:28:51;3.90;99.90
6373;DHT22;3219;51.362;7.074;2023-03-01T11:31:19;3.90;99.90
6373;DHT22;3219;51.362;7.074;2023-03-01T11:33:48;4.00;99.90
6373;DHT22;3219;51.362;7.074;2023-03-01T11:36:26;4.00;99.90
6373;DHT22;3219;51.362;7.074;2023-03-01T11:38:55;4.00;99.90
6373;DHT22;3219;51.362;7.074;2023-03-01T11:41:25;3.90;99.90
6373;DHT22;3219;51.362;7.074;2023-03-01T11:43:56;3.80;99.90
6373;DHT22;3219;51.362;7.074;2023-03-01T11:46:59;3.80;99.90
6373;DHT22;3219;51.362;7.074;2023-03-01T11:49:54;3.80;99.90
6373;DHT22;3219;51.362;7.074;2023-03-01T11:52:31;3.90;99.90
6373;DHT22;3219;51.362;7.074;2023-03-01T11:55:19;3.90;99.90
6373;DHT22;3219;51.362;7.074;2023-03-01T11:58:03;4.00;99.90
6373;DHT22;3219;51.362;7.074;2023-03-01T12:01:02;4.00;99.90
6373;DHT22;3219;51.362;7.074;2023-03-01T12:03:55;3.90;99.90
6373;DHT22;3219;51.362;7.074;2023-03-01T12:06:42;3.90;99.90
6373;DHT22;3219;51.362;7.074;2023-03-01T12:09:21;3.90;99.90
6373;DHT22;3219;51.362;7.074;2023-03-01T12:12:05;3.90;99.90
6373;DHT22;3219;51.362;7.074;2023-03-01T12:14:49;3.90;99.90
6373;DHT22;3219;51.362;7.074;2023-03-01T12:17:42;3.90;99.90
6373;DHT22;3219;51.362;7.074;2023-03-01T12:20:18;3.90;99.90
6373;DHT22;3219;51.362;7.074;2023-03-01T12:25:58;4.00;99.90
6373;DHT22;3219;51.362;7.074;2023-03-01T12:28:44;4.00;99.90
6373;DHT22;3219;51.362;7.074;2023-03-01T12:31:57;4.00;99.90
6373;DHT22;3219;51.362;7.074;2023-03-01T12:34:51;4.10;99.90
6373;DHT22;3219;51.362;7.074;2023-03-01T12:37:28;4.10;99.90
6373;DHT22;3219;51.362;7.074;2023-03-01T12:40:09;4.10;99.90
6373;DHT22;3219;51.362;7.074;2023-03-01T12:42:46;4.10;99.90
6373;DHT22;3219;51.362;7.074;2023-03-01T12:45:39;4.10;99.90
6373;DHT22;3219;51.362;7.074;2023-03-01T12:48:22;4.10;99.90
6373;DHT22;3219;51.362;7.074;2023-03-01T12:50:52;4.20;99.90
6373;DHT22;3219;51.362;7.074;2023-03-01T12:53:23;4.30;99.90
6373;DHT22;3219;51.362;7.074;2023-03-01T12:55:53;4.40;99.90
6373;DHT22;3219;51.362;7.074;2023-03-01T12:58:27;4.40;99.90
6373;DHT22;3219;51.362;7.074;2023-03-01T13:01:04;4.50;99.90
6373;DHT22;3219;51.362;7.074;2023-03-01T13:03:38;4.40;99.90
6373;DHT22;3219;51.362;7.074;2023-03-01T13:06:15;4.40;99.90
6373;DHT22;3219;51.362;7.074;2023-03-01T13:08:46;4.50;99.90
6373;DHT22;3219;51.362;7.074;2023-03-01T13:11:17;4.50;99.90
6373;DHT22;3219;51.362;7.074;2023-03-01T13:13:45;4.50;99.90
6373;DHT22;3219;51.362;7.074;2023-03-01T13:19:10;4.50;99.90
6373;DHT22;3219;51.362;7.074;2023-03-01T13:21:38;4.40;99.90
6373;DHT22;3219;51.362;7.074;2023-03-01T13:24:23;4.40;99.90
6373;DHT22;3219;51.362;7.074;2023-03-01T13:27:10;4.40;99.90
6373;DHT22;3219;51.362;7.074;2023-03-01T13:29:46;4.50;99.90
6373;DHT22;3219;51.362;7.074;2023-03-01T13:32:20;4.50;99.90
6373;DHT22;3219;51.362;7.074;2023-03-01T13:37:49;4.60;99.90
6373;DHT22;3219;51.362;7.074;2023-03-01T13:43:28;4.60;99.90
6373;DHT22;3219;51.362;7.074;2023-03-01T13:45:57;4.70;99.90
6373;DHT22;3219;51.362;7.074;2023-03-01T13:48:27;4.60;99.90
6373;DHT22;3219;51.362;7.074;2023-03-01T13:50:57;4.60;99.90
6373;DHT22;3219;51.362;7.074;2023-03-01T13:53:27;4.60;99.90
6373;DHT22;3219;51.362;7.074;2023-03-01T13:55:58;4.60;99.90
6373;DHT22;3219;51.362;7.074;2023-03-01T13:58:28;4.70;99.90
6373;DHT22;3219;51.362;7.074;2023-03-01T14:00:59;4.70;99.90
6373;DHT22;3219;51.362;7.074;2023-03-01T14:03:27;4.70;99.90
6373;DHT22;3219;51.362;7.074;2023-03-01T14:06:01;4.70;99.90
6373;DHT22;3219;51.362;7.074;2023-03-01T14:08:30;4.70;99.90
6373;DHT22;3219;51.362;7.074;2023-03-01T14:11:32;4.80;99.90
6373;DHT22;3219;51.362;7.074;2023-03-01T14:14:29;4.90;99.90
6373;DHT22;3219;51.362;7.074;2023-03-01T14:17:07;4.80;99.90
6373;DHT22;3219;51.362;7.074;2023-03-01T14:19:36;4.90;99.90
6373;DHT22;3219;51.362;7.074;2023-03-01T14:22:12;4.90;99.90
6373;DHT22;3219;51.362;7.074;2023-03-01T14:24:51;4.90;99.90
6373;DHT22;3219;51.362;7.074;2023-03-01T14:27:20;4.90;99.90
6373;DHT22;3219;51.362;7.074;2023-03-01T14:29:55;4.90;99.90
6373;DHT22;3219;51.362;7.074;2023-03-01T14:32:25;4.90;99.90
6373;DHT22;3219;51.362;7.074;2023-03-01T14:34:53;4.90;99.90
6373;DHT22;3219;51.362;7.074;2023-03-01T14:37:22;4.90;99.90
6373;DHT22;3219;51.362;7.074;2023-03-01T14:39:51;4.90;99.90
6373;DHT22;3219;51.362;7.074;2023-03-01T14:42:19;4.90;99.90
6373;DHT22;3219;51.362;7.074;2023-03-01T14:44:48;5.00;99.90
6373;DHT22;3219;51.362;7.074;2023-03-01T14:47:23;4.90;99.90
6373;DHT22;3219;51.362;7.074;2023-03-01T14:49:55;5.00;99.90
6373;DHT22;3219;51.362;7.074;2023-03-01T14:52:28;4.90;99.90
6373;DHT22;3219;51.362;7.074;2023-03-01T14:54:59;4.90;99.90
6373;DHT22;3219;51.362;7.074;2023-03-01T14:57:27;4.90;99.90
6373;DHT22;3219;51.362;7.074;2023-03-01T14:59:55;4.90;99.90
6373;DHT22;3219;51.362;7.074;2023-03-01T15:02:26;5.00;99.90
6373;DHT22;3219;51.362;7.074;2023-03-01T15:04:56;5.00;99.90
6373;DHT22;3219;51.362;7.074;2023-03-01T15:07:29;5.00;99.90
6373;DHT22;3219;51.362;7.074;2023-03-01T15:09:57;4.90;99.90
6373;DHT22;3219;51.362;7.074;2023-03-01T15:12:34;4.90;99.90
6373;DHT22;3219;51.362;7.074;2023-03-01T15:15:08;4.90;99.90
6373;DHT22;3219;51.362;7.074;2023-03-01T15:17:52;4.90;99.90
6373;DHT22;3219;51.362;7.074;2023-03-01T15:20:22;4.90;99.90
6373;DHT22;3219;51.362;7.074;2023-03-01T15:22:51;4.90;99.90
6373;DHT22;3219;51.362;7.074;2023-03-01T15:25:19;4.90;99.90
6373;DHT22;3219;51.362;7.074;2023-03-01T15:27:49;4.80;99.90
6373;DHT22;3219;51.362;7.074;2023-03-01T15:30:20;4.80;99.90
6373;DHT22;3219;51.362;7.074;2023-03-01T15:32:54;4.80;99.90
6373;DHT22;3219;51.362;7.074;2023-03-01T15:35:47;4.80;99.90
6373;DHT22;3219;51.362;7.074;2023-03-01T15:38:35;4.80;99.90
6373;DHT22;3219;51.362;7.074;2023-03-01T15:41:22;4.80;99.90
6373;DHT22;3219;51.362;7.074;2023-03-01T15:43:49;4.80;99.90
6373;DHT22;3219;51.362;7.074;2023-03-01T15:46:22;4.80;99.90
6373;DHT22;3219;51.362;7.074;2023-03-01T15:48:52;4.80;99.90
6373;DHT22;3219;51.362;7.074;2023-03-01T15:51:29;4.80;99.90
6373;DHT22;3219;51.362;7.074;2023-03-01T15:53:57;4.80;99.90
6373;DHT22;3219;51.362;7.074;2023-03-01T15:56:24;4.70;99.90
6373;DHT22;3219;51.362;7.074;2023-03-01T15:58:51;4.70;99.90
6373;DHT22;3219;51.362;7.074;2023-03-01T16:01:18;4.70;99.90
6373;DHT22;3219;51.362;7.074;2023-03-01T16:03:45;4.70;99.90
6373;DHT22;3219;51.362;7.074;2023-03-01T16:06:12;4.70;99.90
6373;DHT22;3219;51.362;7.074;2023-03-01T16:08:40;4.70;99.90
6373;DHT22;3219;51.362;7.074;2023-03-01T16:11:14;4.60;99.90
6373;DHT22;3219;51.362;7.074;2023-03-01T16:13:41;4.70;99.90
6373;DHT22;3219;51.362;7.074;2023-03-01T16:16:10;4.60;99.90
6373;DHT22;3219;51.362;7.074;2023-03-01T16:18:38;4.60;99.90
6373;DHT22;3219;51.362;7.074;2023-03-01T16:21:04;4.50;99.90
6373;DHT22;3219;51.362;7.074;2023-03-01T16:23:32;4.50;99.90
6373;DHT22;3219;51.362;7.074;2023-03-01T16:26:00;4.50;99.90
6373;DHT22;3219;51.362;7.074;2023-03-01T16:28:27;4.50;99.90
6373;DHT22;3219;51.362;7.074;2023-03-01T16:30:54;4.50;99.90
6373;DHT22;3219;51.362;7.074;2023-03-01T16:33:21;4.40;99.90
6373;DHT22;3219;51.362;7.074;2023-03-01T16:35:47;4.40;99.90
6373;DHT22;3219;51.362;7.074;2023-03-01T16:38:14;4.40;99.90
6373;DHT22;3219;51.362;7.074;2023-03-01T16:40:47;4.40;99.90
6373;DHT22;3219;51.362;7.074;2023-03-01T16:43:15;4.30;99.90